KOLF/OLF METAR and TAF weather

Enter ICAO airport designator
Station Type Date Time Source
KOLF METAR 2018/12/17 02:53 UTC NOAA

KOLF 170253Z AUTO 06008KT 10SM CLR M03/M06 A3005 RMK AO2 SLP209 T10331061 58014


Station Type Date Time Source
KOLF Decoded METAR 2018/12/17 02:53 UTC NOAA

WOLF POINT CLAYTON AIRPORT, MT, United States (KOLF) 48-06N 105-35W 604M
Dec 16, 2018 - 09:53 PM EST / 2018.12.17 0253 UTC
Wind: from the ENE (060 degrees) at 9 MPH (8 KT):0
Visibility: 10 mile(s):0
Sky conditions: clear
Temperature: 26.1 F (-3.3 C)
Windchill: 17 F (-8 C):1
Dew Point: 21.0 F (-6.1 C)
Relative Humidity: 80%
Pressure (altimeter): 30.05 in. Hg (1017 hPa)
Pressure tendency: 0.04 inches (1.4 hPa) lower than three hours ago
ob: KOLF 170253Z AUTO 06008KT 10SM CLR M03/M06 A3005 RMK AO2 SLP209 T10331061 58014
cycle: 3

Station Type Date Time Source
KOLF TAF 2018/12/16 18:24 UTC NOAA

TAF KOLF 161722Z 1618/1718 VRB03KT P6SM BKN150
FM170000 VRB06KT P6SM BKN150
FM171400 VRB05KT P6SM SCT035


Example: see airport list